createdAt,value
2023-01-31T00:00:21.298Z,968.51
2023-01-31T00:00:51.430Z,968.30
2023-01-31T00:01:22.317Z,968.30
2023-01-31T00:01:53.090Z,968.51
2023-01-31T00:02:24.392Z,968.51
2023-01-31T00:02:55.363Z,968.51
2023-01-31T00:03:25.616Z,968.51
2023-01-31T00:03:57.294Z,968.61
2023-01-31T00:04:28.352Z,968.61
2023-01-31T00:04:59.032Z,968.40
2023-01-31T00:05:30.873Z,968.40
2023-01-31T00:06:01.455Z,968.51
2023-01-31T00:06:32.113Z,968.51
2023-01-31T00:07:03.432Z,968.40
2023-01-31T00:07:33.542Z,968.40
2023-01-31T00:08:04.579Z,968.40
2023-01-31T00:08:36.361Z,968.40
2023-01-31T00:09:07.434Z,968.40
2023-01-31T00:09:37.555Z,968.40
2023-01-31T00:10:10.009Z,968.40
2023-01-31T00:10:39.577Z,968.30
2023-01-31T00:11:11.068Z,968.30
2023-01-31T00:11:42.350Z,968.20
2023-01-31T00:12:12.884Z,968.20
2023-01-31T00:12:44.020Z,968.10
2023-01-31T00:13:14.606Z,968.10
2023-01-31T00:13:46.211Z,968.30
2023-01-31T00:14:17.176Z,968.30
2023-01-31T00:14:47.587Z,968.30
2023-01-31T00:15:21.025Z,968.30
2023-01-31T00:15:49.691Z,968.40
2023-01-31T00:16:21.485Z,968.40
2023-01-31T00:16:52.219Z,968.61
2023-01-31T00:17:23.421Z,968.61
2023-01-31T00:17:53.595Z,968.30
2023-01-31T00:18:25.178Z,968.30
2023-01-31T00:18:56.261Z,968.30
2023-01-31T00:19:27.171Z,968.30
2023-01-31T00:19:57.579Z,968.61
2023-01-31T00:20:29.619Z,968.61
2023-01-31T00:21:00.233Z,968.40
2023-01-31T00:21:32.269Z,968.40
2023-01-31T00:22:02.141Z,968.51
2023-01-31T00:22:34.871Z,968.51
2023-01-31T00:23:04.328Z,968.61
2023-01-31T00:23:36.081Z,968.61
2023-01-31T00:24:06.107Z,968.40
2023-01-31T00:24:37.811Z,968.40
2023-01-31T00:25:08.827Z,968.40
2023-01-31T00:25:39.073Z,968.51
2023-01-31T00:26:10.246Z,968.51
2023-01-31T00:26:41.172Z,968.51
2023-01-31T00:27:12.147Z,968.51
2023-01-31T00:27:42.771Z,968.40
2023-01-31T00:28:13.791Z,968.40
2023-01-31T00:28:45.702Z,968.40
2023-01-31T00:29:15.659Z,968.40
2023-01-31T00:29:46.699Z,968.51
2023-01-31T00:30:18.915Z,968.51
2023-01-31T00:30:49.418Z,968.81
2023-01-31T00:31:20.291Z,968.81
2023-01-31T00:31:50.824Z,968.61
2023-01-31T00:32:22.371Z,968.61
2023-01-31T00:32:52.882Z,968.30
2023-01-31T00:33:24.300Z,968.30
2023-01-31T00:33:55.349Z,968.40
2023-01-31T00:34:25.560Z,968.40
2023-01-31T00:34:57.271Z,968.40
2023-01-31T00:35:28.832Z,968.40
2023-01-31T00:35:58.744Z,968.30
2023-01-31T00:36:30.474Z,968.30
2023-01-31T00:37:01.331Z,968.40
2023-01-31T00:37:32.217Z,968.40
2023-01-31T00:38:02.911Z,968.10
2023-01-31T00:38:34.679Z,968.10
2023-01-31T00:39:05.176Z,968.51
2023-01-31T00:39:36.432Z,968.51
2023-01-31T00:40:07.318Z,968.30
2023-01-31T00:40:38.508Z,968.51
2023-01-31T00:41:08.699Z,968.51
2023-01-31T00:41:39.924Z,968.40
2023-01-31T00:42:11.774Z,968.40
2023-01-31T00:42:42.376Z,968.51
2023-01-31T00:43:13.335Z,968.51
2023-01-31T00:43:44.388Z,968.51
2023-01-31T00:44:14.664Z,968.51
2023-01-31T00:44:45.718Z,968.51
2023-01-31T00:45:19.463Z,968.51
2023-01-31T00:45:48.616Z,968.40
2023-01-31T00:46:19.081Z,968.40
2023-01-31T00:46:50.166Z,968.71
2023-01-31T00:47:20.861Z,968.71
2023-01-31T00:47:51.668Z,968.61
2023-01-31T00:48:23.299Z,968.61
2023-01-31T00:48:53.904Z,968.51
2023-01-31T00:49:24.904Z,968.51
2023-01-31T00:49:55.699Z,968.40
2023-01-31T00:50:27.086Z,968.40
2023-01-31T00:50:59.057Z,968.40
2023-01-31T00:51:29.529Z,968.40
2023-01-31T00:52:00.125Z,968.51
2023-01-31T00:52:30.771Z,968.51
2023-01-31T00:53:03.594Z,968.30
2023-01-31T00:53:32.855Z,968.30
2023-01-31T00:54:06.344Z,968.40
2023-01-31T00:54:34.964Z,968.40
2023-01-31T00:55:08.739Z,968.40
2023-01-31T00:55:37.391Z,968.40
2023-01-31T00:56:08.388Z,968.40
2023-01-31T00:56:38.844Z,968.51
2023-01-31T00:57:09.756Z,968.51
2023-01-31T00:57:41.007Z,968.51
2023-01-31T00:58:11.683Z,968.51
2023-01-31T00:58:43.006Z,968.51
2023-01-31T00:59:14.177Z,968.51
2023-01-31T00:59:44.983Z,968.71
2023-01-31T01:00:17.436Z,968.71
2023-01-31T01:00:47.415Z,968.30
2023-01-31T01:01:18.347Z,968.30
2023-01-31T01:01:49.453Z,968.61
2023-01-31T01:02:20.193Z,968.61
2023-01-31T01:02:51.051Z,968.61
2023-01-31T01:03:21.730Z,968.61
2023-01-31T01:03:53.297Z,968.40
2023-01-31T01:04:24.200Z,968.40
2023-01-31T01:04:55.829Z,968.61
2023-01-31T01:05:26.736Z,968.61
2023-01-31T01:05:57.258Z,968.51
2023-01-31T01:06:27.755Z,968.51
2023-01-31T01:06:59.261Z,968.61
2023-01-31T01:07:30.443Z,968.61
2023-01-31T01:08:01.575Z,968.71
2023-01-31T01:08:31.807Z,968.71
2023-01-31T01:09:02.742Z,968.61
2023-01-31T01:09:34.496Z,968.61
2023-01-31T01:10:06.294Z,968.61
2023-01-31T01:10:35.718Z,968.61
2023-01-31T01:11:06.810Z,968.71
2023-01-31T01:11:38.357Z,968.51
2023-01-31T01:12:09.311Z,968.51
2023-01-31T01:12:40.146Z,968.40
2023-01-31T01:13:11.440Z,968.40
2023-01-31T01:13:42.475Z,968.61
2023-01-31T01:14:13.587Z,968.61
2023-01-31T01:14:43.841Z,968.61
2023-01-31T01:15:16.764Z,968.61
2023-01-31T01:15:45.794Z,968.30
2023-01-31T01:16:16.948Z,968.30
2023-01-31T01:16:47.816Z,968.61
2023-01-31T01:17:19.424Z,968.61
2023-01-31T01:17:50.337Z,968.61
2023-01-31T01:18:21.480Z,968.61
2023-01-31T01:18:52.411Z,968.40
2023-01-31T01:19:23.497Z,968.40
2023-01-31T01:19:54.483Z,968.40
2023-01-31T01:20:25.908Z,968.40
2023-01-31T01:20:56.344Z,968.61
2023-01-31T01:21:27.205Z,968.61
2023-01-31T01:21:57.907Z,968.40
2023-01-31T01:22:29.422Z,968.40
2023-01-31T01:22:59.959Z,968.51
2023-01-31T01:23:31.295Z,968.51
2023-01-31T01:24:02.273Z,968.51
2023-01-31T01:24:36.359Z,968.51
2023-01-31T01:25:04.641Z,968.61
2023-01-31T01:25:36.679Z,968.61
2023-01-31T01:26:06.392Z,968.71
2023-01-31T01:26:38.093Z,968.40
2023-01-31T01:27:07.779Z,968.40
2023-01-31T01:27:41.580Z,968.40
2023-01-31T01:28:10.223Z,968.40
2023-01-31T01:28:40.776Z,968.40
2023-01-31T01:29:11.748Z,968.40
2023-01-31T01:29:43.093Z,968.51
2023-01-31T01:30:15.743Z,968.51
2023-01-31T01:30:45.199Z,968.30
2023-01-31T01:31:16.197Z,968.30
2023-01-31T01:31:47.479Z,968.51
2023-01-31T01:32:18.391Z,968.51
2023-01-31T01:32:48.876Z,968.51
2023-01-31T01:33:19.725Z,968.51
2023-01-31T01:33:50.940Z,968.51
2023-01-31T01:34:22.667Z,968.51
2023-01-31T01:34:53.054Z,968.30
2023-01-31T01:35:24.587Z,968.30
2023-01-31T01:35:55.329Z,968.40
2023-01-31T01:36:26.060Z,968.40
2023-01-31T01:36:57.511Z,968.30
2023-01-31T01:37:28.122Z,968.30
2023-01-31T01:37:58.936Z,968.51
2023-01-31T01:38:31.321Z,968.51
2023-01-31T01:39:01.015Z,968.40
2023-01-31T01:39:32.657Z,968.40
2023-01-31T01:40:03.484Z,968.40
2023-01-31T01:40:33.859Z,968.40
2023-01-31T01:41:05.485Z,968.40
2023-01-31T01:41:36.273Z,968.40
2023-01-31T01:42:06.858Z,968.20
2023-01-31T01:42:38.659Z,968.51
2023-01-31T01:43:09.348Z,968.51
2023-01-31T01:43:40.060Z,968.40
2023-01-31T01:44:11.121Z,968.40
2023-01-31T01:44:42.311Z,968.51
2023-01-31T01:45:14.553Z,968.51
2023-01-31T01:45:44.586Z,968.51
2023-01-31T01:46:15.454Z,968.51
2023-01-31T01:46:46.698Z,968.51
2023-01-31T01:47:16.860Z,968.51
2023-01-31T01:47:47.788Z,968.61
2023-01-31T01:48:19.697Z,968.61
2023-01-31T01:48:49.903Z,968.40
2023-01-31T01:49:21.071Z,968.40
2023-01-31T01:49:52.681Z,968.61
2023-01-31T01:50:24.561Z,968.61
2023-01-31T01:50:54.508Z,968.61
2023-01-31T01:51:25.328Z,968.61
2023-01-31T01:51:56.548Z,968.40
2023-01-31T01:52:27.344Z,968.40
2023-01-31T01:52:58.467Z,968.51
2023-01-31T01:53:29.696Z,968.51
2023-01-31T01:54:00.344Z,968.61
2023-01-31T01:54:30.912Z,968.61
2023-01-31T01:55:02.616Z,968.61
2023-01-31T01:55:32.830Z,968.61
2023-01-31T01:56:05.493Z,968.30
2023-01-31T01:56:36.015Z,968.30
2023-01-31T01:57:08.897Z,968.40
2023-01-31T01:57:37.367Z,968.51
2023-01-31T01:58:08.709Z,968.51
2023-01-31T01:58:39.344Z,968.61
2023-01-31T01:59:10.379Z,968.61
2023-01-31T01:59:41.820Z,968.81
2023-01-31T02:00:13.192Z,968.81
2023-01-31T02:00:43.001Z,968.71
2023-01-31T02:01:14.680Z,968.71
2023-01-31T02:01:45.380Z,968.51
2023-01-31T02:02:16.553Z,968.51
2023-01-31T02:02:46.927Z,968.61
2023-01-31T02:03:18.257Z,968.61
2023-01-31T02:03:49.506Z,968.61
2023-01-31T02:04:20.302Z,968.61
2023-01-31T02:04:51.641Z,968.71
2023-01-31T02:05:22.940Z,968.71
2023-01-31T02:05:53.623Z,968.51
2023-01-31T02:06:24.056Z,968.51
2023-01-31T02:06:55.289Z,968.71
2023-01-31T02:07:26.717Z,968.71
2023-01-31T02:07:57.522Z,968.71
2023-01-31T02:08:28.269Z,968.71
2023-01-31T02:08:58.939Z,968.61
2023-01-31T02:09:30.657Z,968.61
2023-01-31T02:10:01.846Z,968.61
2023-01-31T02:10:31.900Z,968.61
2023-01-31T02:11:03.460Z,968.51
2023-01-31T02:11:33.982Z,968.51
2023-01-31T02:12:05.061Z,968.51
2023-01-31T02:12:36.469Z,968.51
2023-01-31T02:13:06.969Z,968.81
2023-01-31T02:13:37.907Z,968.61
2023-01-31T02:14:09.301Z,968.61
2023-01-31T02:14:40.337Z,968.51
2023-01-31T02:15:12.602Z,968.51
2023-01-31T02:15:42.698Z,968.30
2023-01-31T02:16:12.994Z,968.30
2023-01-31T02:16:43.968Z,968.71
2023-01-31T02:17:15.863Z,968.71
2023-01-31T02:17:46.641Z,968.71
2023-01-31T02:18:17.291Z,968.71
2023-01-31T02:18:48.539Z,968.20
2023-01-31T02:19:19.177Z,968.20
2023-01-31T02:19:50.457Z,968.61
2023-01-31T02:20:22.002Z,968.61
2023-01-31T02:20:52.689Z,968.61
2023-01-31T02:21:23.941Z,968.61
2023-01-31T02:21:53.906Z,968.51
2023-01-31T02:22:26.311Z,968.51
2023-01-31T02:22:55.960Z,968.81
2023-01-31T02:23:27.540Z,968.81
2023-01-31T02:23:57.977Z,968.51
2023-01-31T02:24:29.730Z,968.51
2023-01-31T02:25:00.944Z,968.61
2023-01-31T02:25:31.852Z,968.61
2023-01-31T02:26:02.502Z,968.61
2023-01-31T02:26:33.714Z,968.61
2023-01-31T02:27:04.819Z,968.61
2023-01-31T02:27:37.028Z,968.61
2023-01-31T02:28:06.614Z,968.71
2023-01-31T02:28:39.537Z,968.71
2023-01-31T02:29:08.000Z,968.71
2023-01-31T02:29:40.943Z,968.61
2023-01-31T02:30:11.944Z,968.61
2023-01-31T02:30:41.532Z,968.51
2023-01-31T02:31:12.376Z,968.51
2023-01-31T02:31:43.058Z,968.91
2023-01-31T02:32:14.423Z,968.91
2023-01-31T02:32:44.986Z,968.71
2023-01-31T02:33:16.051Z,968.71
2023-01-31T02:33:47.644Z,969.01
2023-01-31T02:34:18.520Z,969.01
2023-01-31T02:34:49.988Z,968.71
2023-01-31T02:35:21.448Z,968.71
2023-01-31T02:35:51.298Z,968.91
2023-01-31T02:36:22.691Z,968.91
2023-01-31T02:36:53.025Z,968.71
2023-01-31T02:37:24.387Z,968.71
2023-01-31T02:37:55.211Z,968.61
2023-01-31T02:38:26.786Z,968.61
2023-01-31T02:38:57.260Z,968.81
2023-01-31T02:39:28.347Z,968.81
2023-01-31T02:39:59.385Z,968.81
2023-01-31T02:40:30.642Z,968.81
2023-01-31T02:41:01.598Z,968.71
2023-01-31T02:41:32.212Z,968.71
2023-01-31T02:42:03.019Z,968.81
2023-01-31T02:42:34.347Z,968.81
2023-01-31T02:43:06.193Z,968.71
2023-01-31T02:43:36.724Z,968.71
2023-01-31T02:44:07.272Z,968.91
2023-01-31T02:44:38.495Z,968.81
2023-01-31T02:45:10.293Z,968.81
2023-01-31T02:45:40.578Z,968.81
2023-01-31T02:46:11.404Z,968.81
2023-01-31T02:46:42.098Z,968.81
2023-01-31T02:47:13.440Z,968.81
2023-01-31T02:47:44.058Z,968.81
2023-01-31T02:48:15.057Z,968.81
2023-01-31T02:48:46.079Z,968.91
2023-01-31T02:49:17.507Z,968.91
2023-01-31T02:49:48.378Z,968.81
2023-01-31T02:50:19.753Z,968.81
2023-01-31T02:50:50.398Z,968.91
2023-01-31T02:51:21.064Z,968.91
2023-01-31T02:51:52.451Z,968.71
2023-01-31T02:52:23.837Z,968.71
2023-01-31T02:52:54.077Z,968.81
2023-01-31T02:53:25.423Z,968.81
2023-01-31T02:53:56.368Z,968.81
2023-01-31T02:54:27.613Z,968.81
2023-01-31T02:54:58.387Z,969.01
2023-01-31T02:55:30.279Z,969.01
2023-01-31T02:56:00.336Z,968.61
2023-01-31T02:56:31.127Z,968.61
2023-01-31T02:57:02.407Z,968.71
2023-01-31T02:57:33.347Z,968.71
2023-01-31T02:58:04.720Z,968.91
2023-01-31T02:58:36.721Z,968.91
2023-01-31T02:59:07.736Z,969.01
2023-01-31T02:59:37.788Z,968.81
2023-01-31T03:00:10.721Z,968.81
2023-01-31T03:00:39.759Z,968.71
2023-01-31T03:01:11.046Z,968.71
2023-01-31T03:01:41.431Z,968.81
2023-01-31T03:02:12.465Z,968.81
2023-01-31T03:02:44.119Z,968.71
2023-01-31T03:03:14.088Z,968.71
2023-01-31T03:03:45.262Z,968.81
2023-01-31T03:04:16.123Z,968.81
2023-01-31T03:04:47.670Z,968.91
2023-01-31T03:05:19.909Z,968.91
2023-01-31T03:05:49.485Z,968.81
2023-01-31T03:06:20.482Z,968.81
2023-01-31T03:06:51.776Z,968.91
2023-01-31T03:07:22.291Z,968.91
2023-01-31T03:07:53.608Z,968.81
2023-01-31T03:08:24.121Z,968.81
2023-01-31T03:08:55.769Z,968.81
2023-01-31T03:09:26.582Z,968.81
2023-01-31T03:09:57.690Z,968.81
2023-01-31T03:10:29.404Z,968.81
2023-01-31T03:10:59.099Z,968.91
2023-01-31T03:11:30.484Z,968.91
2023-01-31T03:12:01.905Z,969.01
2023-01-31T03:12:32.927Z,969.01
2023-01-31T03:13:03.936Z,969.11
2023-01-31T03:13:34.543Z,969.11
2023-01-31T03:14:05.781Z,969.01
2023-01-31T03:14:36.543Z,969.01
2023-01-31T03:15:08.298Z,969.01
2023-01-31T03:15:38.504Z,968.81
2023-01-31T03:16:09.068Z,968.81
2023-01-31T03:16:40.392Z,968.91
2023-01-31T03:17:11.839Z,968.91
2023-01-31T03:17:42.121Z,968.91
2023-01-31T03:18:13.792Z,968.91
2023-01-31T03:18:44.140Z,968.91
2023-01-31T03:19:15.463Z,968.91
2023-01-31T03:19:46.147Z,969.11
2023-01-31T03:20:17.814Z,969.11
2023-01-31T03:20:48.509Z,968.91
2023-01-31T03:21:19.736Z,968.91
2023-01-31T03:21:50.469Z,969.01
2023-01-31T03:22:21.562Z,969.01
2023-01-31T03:22:52.457Z,968.91
2023-01-31T03:23:23.498Z,968.91
2023-01-31T03:23:54.493Z,969.11
2023-01-31T03:24:25.289Z,969.11
2023-01-31T03:24:56.139Z,969.18
2023-01-31T03:25:28.466Z,969.18
2023-01-31T03:25:58.296Z,969.01
2023-01-31T03:26:29.219Z,969.01
2023-01-31T03:27:00.219Z,969.11
2023-01-31T03:27:31.663Z,969.11
2023-01-31T03:28:03.025Z,969.11
2023-01-31T03:28:33.530Z,969.11
2023-01-31T03:29:04.168Z,969.18
2023-01-31T03:29:35.465Z,969.18
2023-01-31T03:30:07.429Z,969.01
2023-01-31T03:30:39.621Z,969.11
2023-01-31T03:31:08.348Z,969.11
2023-01-31T03:31:40.074Z,969.01
2023-01-31T03:32:10.840Z,969.01
2023-01-31T03:32:43.121Z,969.18
2023-01-31T03:33:12.829Z,969.18
2023-01-31T03:33:43.469Z,969.28
2023-01-31T03:34:14.547Z,969.28
2023-01-31T03:34:46.559Z,969.18
2023-01-31T03:35:18.352Z,969.18
2023-01-31T03:35:47.340Z,969.28
2023-01-31T03:36:18.376Z,969.28
2023-01-31T03:36:49.559Z,969.59
2023-01-31T03:37:20.509Z,969.59
2023-01-31T03:37:51.826Z,969.18
2023-01-31T03:38:22.604Z,969.18
2023-01-31T03:38:53.241Z,969.11
2023-01-31T03:39:24.180Z,969.11
2023-01-31T03:39:55.703Z,969.18
2023-01-31T03:40:26.981Z,969.18
2023-01-31T03:40:57.129Z,969.18
2023-01-31T03:41:28.522Z,969.18
2023-01-31T03:41:59.496Z,969.18
2023-01-31T03:42:30.641Z,969.18
2023-01-31T03:43:01.172Z,969.28
2023-01-31T03:43:33.065Z,969.28
2023-01-31T03:44:03.907Z,969.28
2023-01-31T03:44:35.360Z,969.28
2023-01-31T03:45:06.082Z,969.18
2023-01-31T03:45:36.977Z,969.18
2023-01-31T03:46:07.618Z,969.28
2023-01-31T03:46:38.271Z,969.28
2023-01-31T03:47:09.447Z,969.28
2023-01-31T03:47:40.986Z,969.18
2023-01-31T03:48:11.931Z,969.18
2023-01-31T03:48:42.280Z,969.01
2023-01-31T03:49:13.147Z,969.01
2023-01-31T03:49:45.160Z,969.11
2023-01-31T03:50:16.483Z,969.11
2023-01-31T03:50:46.212Z,969.18
2023-01-31T03:51:17.429Z,969.18
2023-01-31T03:51:48.633Z,969.28
2023-01-31T03:52:19.699Z,969.28
2023-01-31T03:52:50.315Z,969.28
2023-01-31T03:53:21.647Z,969.28
2023-01-31T03:53:52.845Z,969.28
2023-01-31T03:54:23.783Z,969.28
2023-01-31T03:54:55.063Z,969.01
2023-01-31T03:55:26.799Z,969.01
2023-01-31T03:55:56.258Z,969.39
2023-01-31T03:56:27.262Z,969.39
2023-01-31T03:56:58.724Z,969.28
2023-01-31T03:57:29.175Z,969.28
2023-01-31T03:58:01.099Z,969.28
2023-01-31T03:58:32.372Z,969.28
2023-01-31T03:59:02.298Z,969.39
2023-01-31T03:59:33.920Z,969.39
2023-01-31T04:00:05.389Z,969.18
2023-01-31T04:00:36.120Z,969.18
2023-01-31T04:01:07.098Z,969.28
2023-01-31T04:01:37.780Z,969.18
2023-01-31T04:02:10.707Z,969.18
2023-01-31T04:02:39.758Z,969.28
2023-01-31T04:03:12.638Z,969.28
2023-01-31T04:03:41.263Z,969.28
2023-01-31T04:04:13.478Z,969.28
2023-01-31T04:04:43.980Z,969.11
2023-01-31T04:05:17.374Z,969.11
2023-01-31T04:05:45.779Z,969.28
2023-01-31T04:06:16.855Z,969.28
2023-01-31T04:06:48.143Z,969.28
2023-01-31T04:07:18.690Z,969.28
2023-01-31T04:07:50.016Z,969.28
2023-01-31T04:08:20.681Z,969.28
2023-01-31T04:08:51.828Z,969.39
2023-01-31T04:09:23.196Z,969.39
2023-01-31T04:09:53.296Z,969.39
2023-01-31T04:10:25.203Z,969.39
2023-01-31T04:10:55.440Z,969.49
2023-01-31T04:11:26.308Z,969.49
2023-01-31T04:11:57.320Z,969.39
2023-01-31T04:12:28.706Z,969.39
2023-01-31T04:12:59.695Z,969.59
2023-01-31T04:13:30.320Z,969.59
2023-01-31T04:14:01.257Z,969.59
2023-01-31T04:14:32.434Z,969.59
2023-01-31T04:15:05.036Z,969.49
2023-01-31T04:15:35.020Z,969.49
2023-01-31T04:16:05.420Z,969.28
2023-01-31T04:16:36.958Z,969.28
2023-01-31T04:17:07.301Z,969.49
2023-01-31T04:17:38.427Z,969.69
2023-01-31T04:18:09.249Z,969.69
2023-01-31T04:18:40.697Z,969.79
2023-01-31T04:19:11.975Z,969.79
2023-01-31T04:19:42.328Z,969.79
2023-01-31T04:20:13.969Z,969.79
2023-01-31T04:20:45.203Z,969.79
2023-01-31T04:21:15.391Z,969.79
2023-01-31T04:21:46.590Z,969.89
2023-01-31T04:22:17.951Z,969.89
2023-01-31T04:22:49.022Z,969.59
2023-01-31T04:23:20.202Z,969.59
2023-01-31T04:23:50.919Z,969.59
2023-01-31T04:24:21.404Z,969.59
2023-01-31T04:24:52.309Z,969.59
2023-01-31T04:25:24.367Z,969.59
2023-01-31T04:25:55.413Z,969.59
2023-01-31T04:26:25.632Z,969.59
2023-01-31T04:26:56.427Z,969.49
2023-01-31T04:27:27.621Z,969.49
2023-01-31T04:27:58.747Z,969.69
2023-01-31T04:28:29.347Z,969.69
2023-01-31T04:29:00.633Z,969.69
2023-01-31T04:29:31.915Z,969.69
2023-01-31T04:30:03.494Z,969.79
2023-01-31T04:30:34.298Z,969.79
2023-01-31T04:31:04.821Z,969.79
2023-01-31T04:31:36.719Z,969.79
2023-01-31T04:32:06.456Z,969.89
2023-01-31T04:32:38.289Z,969.69
2023-01-31T04:33:08.420Z,969.69
2023-01-31T04:33:41.189Z,969.79
2023-01-31T04:34:11.723Z,969.79
2023-01-31T04:34:43.133Z,969.89
2023-01-31T04:35:13.150Z,969.89
2023-01-31T04:35:44.754Z,969.79
2023-01-31T04:36:14.779Z,969.79
2023-01-31T04:36:45.304Z,970.00
2023-01-31T04:37:16.688Z,970.00
2023-01-31T04:37:48.063Z,969.79
2023-01-31T04:38:18.727Z,969.79
2023-01-31T04:38:49.339Z,969.79
2023-01-31T04:39:20.408Z,969.79
2023-01-31T04:39:52.465Z,969.59
2023-01-31T04:40:22.882Z,969.59
2023-01-31T04:40:53.545Z,969.79
2023-01-31T04:41:24.600Z,969.79
2023-01-31T04:41:55.579Z,970.00
2023-01-31T04:42:26.950Z,970.00
2023-01-31T04:42:57.582Z,969.89
2023-01-31T04:43:28.410Z,969.89
2023-01-31T04:43:59.401Z,969.79
2023-01-31T04:44:30.787Z,969.79
2023-01-31T04:45:02.679Z,969.89
2023-01-31T04:45:32.963Z,969.89
2023-01-31T04:46:03.503Z,969.79
2023-01-31T04:46:34.436Z,969.79
2023-01-31T04:47:05.392Z,970.10
2023-01-31T04:47:36.657Z,970.10
2023-01-31T04:48:07.811Z,970.00
2023-01-31T04:48:38.859Z,969.89
2023-01-31T04:49:10.768Z,969.89
2023-01-31T04:49:40.929Z,969.79
2023-01-31T04:50:12.047Z,969.79
2023-01-31T04:50:43.107Z,969.89
2023-01-31T04:51:13.418Z,969.89
2023-01-31T04:51:44.425Z,969.89
2023-01-31T04:52:15.420Z,969.89
2023-01-31T04:52:46.778Z,969.79
2023-01-31T04:53:17.968Z,969.79
2023-01-31T04:53:49.093Z,969.69
2023-01-31T04:54:20.145Z,969.69
2023-01-31T04:54:51.191Z,969.59
2023-01-31T04:55:22.565Z,969.59
2023-01-31T04:55:52.434Z,969.69
2023-01-31T04:56:23.787Z,969.69
2023-01-31T04:56:54.454Z,969.59
2023-01-31T04:57:25.728Z,969.59
2023-01-31T04:57:56.961Z,969.59
2023-01-31T04:58:27.627Z,969.59
2023-01-31T04:58:59.061Z,969.59
2023-01-31T04:59:29.464Z,969.59
2023-01-31T05:00:01.658Z,969.59
2023-01-31T05:00:31.946Z,969.59
2023-01-31T05:01:02.857Z,969.79
2023-01-31T05:01:33.817Z,969.79
2023-01-31T05:02:04.828Z,969.69
2023-01-31T05:02:36.323Z,969.69
2023-01-31T05:03:07.331Z,969.79
2023-01-31T05:03:37.938Z,969.79
2023-01-31T05:04:08.457Z,969.79
2023-01-31T05:04:39.499Z,969.79
2023-01-31T05:05:13.349Z,969.79
2023-01-31T05:05:41.751Z,969.79
2023-01-31T05:06:13.805Z,969.79
2023-01-31T05:06:43.734Z,969.79
2023-01-31T05:07:15.766Z,969.79
2023-01-31T05:07:45.731Z,969.79
2023-01-31T05:08:17.018Z,969.79
2023-01-31T05:08:47.737Z,969.69
2023-01-31T05:09:18.857Z,969.69
2023-01-31T05:09:49.683Z,969.59
2023-01-31T05:10:21.556Z,969.59
2023-01-31T05:10:51.490Z,969.89
2023-01-31T05:11:22.525Z,969.89
2023-01-31T05:11:53.691Z,969.79
2023-01-31T05:12:24.787Z,969.79
2023-01-31T05:12:55.720Z,969.69
2023-01-31T05:13:27.343Z,969.69
2023-01-31T05:13:57.898Z,969.79
2023-01-31T05:14:28.769Z,969.79
2023-01-31T05:15:01.520Z,969.79
2023-01-31T05:15:31.510Z,969.79
2023-01-31T05:16:01.540Z,969.59
2023-01-31T05:16:32.900Z,969.59
2023-01-31T05:17:04.404Z,970.00
2023-01-31T05:17:35.297Z,970.00
2023-01-31T05:18:05.681Z,969.79
2023-01-31T05:18:36.897Z,969.79
2023-01-31T05:19:08.099Z,969.89
2023-01-31T05:19:39.389Z,970.00
2023-01-31T05:20:10.763Z,970.00
2023-01-31T05:20:41.252Z,969.79
2023-01-31T05:21:12.056Z,969.79
2023-01-31T05:21:42.897Z,969.79
2023-01-31T05:22:13.538Z,969.79
2023-01-31T05:22:44.548Z,970.00
2023-01-31T05:23:15.769Z,970.00
2023-01-31T05:23:46.702Z,969.89
2023-01-31T05:24:17.734Z,969.89
2023-01-31T05:24:48.775Z,970.00
2023-01-31T05:25:21.618Z,970.00
2023-01-31T05:25:50.867Z,969.89
2023-01-31T05:26:21.924Z,969.89
2023-01-31T05:26:52.737Z,969.89
2023-01-31T05:27:23.760Z,969.89
2023-01-31T05:27:54.883Z,969.89
2023-01-31T05:28:25.775Z,969.89
2023-01-31T05:28:57.361Z,969.69
2023-01-31T05:29:27.862Z,969.69
2023-01-31T05:29:58.792Z,969.89
2023-01-31T05:30:31.491Z,969.89
2023-01-31T05:31:01.061Z,969.79
2023-01-31T05:31:31.690Z,969.79
2023-01-31T05:32:03.348Z,969.69
2023-01-31T05:32:33.749Z,969.69
2023-01-31T05:33:04.790Z,970.20
2023-01-31T05:33:36.258Z,970.20
2023-01-31T05:34:06.833Z,970.00
2023-01-31T05:34:37.762Z,970.10
2023-01-31T05:35:09.482Z,970.10
2023-01-31T05:35:40.643Z,969.69
2023-01-31T05:36:10.841Z,969.69
2023-01-31T05:36:43.926Z,969.69
2023-01-31T05:37:13.228Z,969.69
2023-01-31T05:37:46.081Z,970.00
2023-01-31T05:38:15.219Z,970.00
2023-01-31T05:38:46.978Z,969.59
2023-01-31T05:39:17.062Z,969.59
2023-01-31T05:39:47.771Z,969.89
2023-01-31T05:40:19.171Z,969.89
2023-01-31T05:40:49.610Z,969.69
2023-01-31T05:41:20.621Z,969.69
2023-01-31T05:41:51.865Z,969.69
2023-01-31T05:42:23.068Z,969.69
2023-01-31T05:42:53.821Z,969.79
2023-01-31T05:43:24.831Z,969.79
2023-01-31T05:43:55.602Z,969.89
2023-01-31T05:44:27.005Z,969.89
2023-01-31T05:44:57.897Z,969.89
2023-01-31T05:45:30.164Z,969.89
2023-01-31T05:45:59.980Z,969.79
2023-01-31T05:46:31.143Z,969.79
2023-01-31T05:47:04.971Z,969.59
2023-01-31T05:47:33.532Z,969.59
2023-01-31T05:48:03.848Z,969.69
2023-01-31T05:48:34.944Z,969.69
2023-01-31T05:49:06.253Z,969.79
2023-01-31T05:49:37.413Z,969.79
2023-01-31T05:50:08.841Z,969.79
2023-01-31T05:50:38.762Z,969.69
2023-01-31T05:51:10.014Z,969.69
2023-01-31T05:51:40.929Z,969.59
2023-01-31T05:52:12.498Z,969.59
2023-01-31T05:52:43.369Z,969.69
2023-01-31T05:53:13.940Z,969.69
2023-01-31T05:53:44.947Z,970.00
2023-01-31T05:54:15.641Z,970.00
2023-01-31T05:54:46.897Z,969.79
2023-01-31T05:55:19.149Z,969.79
2023-01-31T05:55:48.873Z,969.79
2023-01-31T05:56:19.681Z,969.79
2023-01-31T05:56:51.004Z,969.89
2023-01-31T05:57:21.660Z,969.89
2023-01-31T05:57:52.978Z,969.89
2023-01-31T05:58:23.902Z,969.89
2023-01-31T05:58:54.659Z,969.69
2023-01-31T05:59:26.408Z,969.69
2023-01-31T05:59:57.417Z,969.59
2023-01-31T06:00:28.929Z,969.59
2023-01-31T06:00:59.828Z,969.89
2023-01-31T06:01:29.665Z,969.89
2023-01-31T06:02:01.089Z,969.89
2023-01-31T06:02:32.331Z,969.89
2023-01-31T06:03:03.177Z,969.79
2023-01-31T06:03:33.979Z,969.79
2023-01-31T06:04:04.969Z,969.89
2023-01-31T06:04:36.323Z,969.89
2023-01-31T06:05:07.572Z,969.69
2023-01-31T06:05:38.019Z,969.79
2023-01-31T06:06:09.057Z,969.79
2023-01-31T06:06:39.711Z,969.89
2023-01-31T06:07:11.349Z,969.89
2023-01-31T06:07:41.901Z,969.89
2023-01-31T06:08:15.321Z,969.89
2023-01-31T06:08:44.042Z,970.10
2023-01-31T06:09:16.975Z,970.10
2023-01-31T06:09:45.883Z,970.00
2023-01-31T06:10:20.993Z,970.00
2023-01-31T06:10:48.105Z,969.89
2023-01-31T06:11:18.831Z,969.89
2023-01-31T06:11:50.500Z,969.89
2023-01-31T06:12:21.548Z,969.89
2023-01-31T06:12:51.722Z,969.79
2023-01-31T06:13:23.194Z,969.79
2023-01-31T06:13:54.023Z,969.79
2023-01-31T06:14:25.101Z,969.79
2023-01-31T06:14:55.864Z,969.89
2023-01-31T06:15:28.224Z,969.89
2023-01-31T06:15:58.550Z,969.89
2023-01-31T06:16:28.996Z,969.89
2023-01-31T06:17:00.576Z,970.10
2023-01-31T06:17:31.547Z,970.10
2023-01-31T06:18:02.057Z,970.10
2023-01-31T06:18:33.130Z,970.10
2023-01-31T06:19:04.065Z,969.69
2023-01-31T06:19:35.104Z,969.69
2023-01-31T06:20:06.487Z,969.89
2023-01-31T06:20:36.947Z,969.89
2023-01-31T06:21:08.129Z,970.00
2023-01-31T06:21:38.942Z,970.00
2023-01-31T06:22:09.712Z,970.00
2023-01-31T06:22:41.389Z,969.89
2023-01-31T06:23:11.982Z,969.89
2023-01-31T06:23:42.946Z,969.79
2023-01-31T06:24:13.763Z,969.79
2023-01-31T06:24:45.013Z,970.20
2023-01-31T06:25:16.913Z,970.20
2023-01-31T06:25:46.970Z,970.10
2023-01-31T06:26:18.159Z,970.10
2023-01-31T06:26:49.144Z,969.89